Time;durP1;ratioP1;P1;durP2;ratioP2;P2;SDS_P1;SDS_P2;PMS_P1;PMS_P2;Temp;Humidity;BMP_temperature;BMP_pressure;BME280_temperature;BME280_humidity;BME280_pressure;Samples;Min_cycle;Max_cycle;Signal;HPM_P1;HPM_P2
2022/04/22 00:00:15;;;;;;;10.13;7.60;;;;;;;10.08;76.06;100956.66;1040230;28;20312;-77
2022/04/22 00:00:47;;;;;;;11.25;8.40;;;;;;;10.09;76.58;100963.63;1040856;28;20300;-77
2022/04/22 00:01:19;;;;;;;9.27;8.30;;;;;;;10.02;76.40;100957.50;1044536;28;20312;-77
2022/04/22 00:01:50;;;;;;;14.50;8.45;;;;;;;10.00;76.92;100960.38;1040348;28;20331;-76
2022/04/22 00:02:22;;;;;;;15.80;8.27;;;;;;;10.04;76.09;100958.94;1040995;28;20300;-77
2022/04/22 00:02:54;;;;;;;12.23;8.10;;;;;;;10.03;76.23;100959.97;1044149;28;20411;-77
2022/04/22 00:03:26;;;;;;;7.70;6.80;;;;;;;9.98;76.91;100961.63;1036271;28;20343;-77
2022/04/22 00:03:57;;;;;;;8.63;7.82;;;;;;;9.97;76.89;100959.97;1036490;28;20312;-76
2022/04/22 00:04:29;;;;;;;11.07;8.55;;;;;;;10.00;76.86;100955.06;1032958;28;20349;-76
2022/04/22 00:05:02;;;;;;;10.05;8.57;;;;;;;10.02;76.91;100957.50;1037522;28;20304;-76
2022/04/22 00:05:35;;;;;;;12.85;7.80;;;;;;;9.95;77.24;100954.88;1040423;28;20284;-77
2022/04/22 00:06:07;;;;;;;13.20;8.02;;;;;;;9.95;76.88;100956.72;1041274;28;20306;-77
2022/04/22 00:06:38;;;;;;;12.15;7.30;;;;;;;9.99;76.81;100963.25;1040176;28;20292;-77
2022/04/22 00:07:10;;;;;;;8.75;7.63;;;;;;;10.00;76.51;100960.38;1040940;28;20841;-77
2022/04/22 00:07:41;;;;;;;16.30;9.13;;;;;;;9.99;76.86;100961.41;1044518;28;20310;-77
2022/04/22 00:08:13;;;;;;;8.13;7.32;;;;;;;9.93;77.33;100956.94;1044537;28;20597;-77
2022/04/22 00:08:44;;;;;;;8.93;7.75;;;;;;;9.94;77.38;100958.56;1044507;28;20295;-76
2022/04/22 00:09:16;;;;;;;10.93;7.63;;;;;;;9.90;77.24;100957.34;1044568;28;20282;-77
2022/04/22 00:09:47;;;;;;;9.18;8.27;;;;;;;9.98;76.58;100959.78;1044384;28;20658;-76
2022/04/22 00:10:19;;;;;;;10.23;7.78;;;;;;;9.90;77.22;100955.50;1044522;28;20809;-77
2022/04/22 00:11:41;;;;;;;13.50;8.55;;;;;;;9.91;77.03;100961.63;1040432;28;20295;-77
2022/04/22 00:12:12;;;;;;;7.32;6.63;;;;;;;9.85;77.63;100957.94;1041686;28;20341;-76
2022/04/22 00:12:44;;;;;;;11.65;6.88;;;;;;;9.83;77.77;100956.53;1044862;28;20291;-77
2022/04/22 00:13:16;;;;;;;10.40;6.85;;;;;;;9.86;77.79;100959.63;1044720;28;20299;-77
2022/04/22 00:13:47;;;;;;;9.55;7.57;;;;;;;9.88;77.71;100956.75;1044610;28;20296;-76
2022/04/22 00:14:19;;;;;;;12.05;7.07;;;;;;;9.89;77.29;100958.38;1044680;28;20307;-77
2022/04/22 00:14:50;;;;;;;8.25;7.45;;;;;;;9.86;77.10;100953.44;1044971;28;20287;-77
2022/04/22 00:15:22;;;;;;;12.98;7.90;;;;;;;9.82;77.22;100953.03;1044583;28;20307;-76
2022/04/22 00:15:54;;;;;;;11.10;7.82;;;;;;;9.81;77.82;100967.38;1040392;28;20358;-76
2022/04/22 00:16:27;;;;;;;12.35;7.32;;;;;;;9.86;77.25;100969.41;1040357;28;20697;-76
2022/04/22 00:16:59;;;;;;;10.40;7.85;;;;;;;9.86;77.81;100956.94;1037076;28;20355;-76
2022/04/22 00:17:30;;;;;;;8.27;7.40;;;;;;;9.87;77.58;100963.09;1041129;28;20296;-76
2022/04/22 00:18:02;;;;;;;14.18;8.27;;;;;;;9.83;77.67;100960.00;1044565;28;20840;-77
2022/04/22 00:18:34;;;;;;;10.27;7.20;;;;;;;9.85;77.81;100959.78;1044081;28;20299;-76
2022/04/22 00:19:06;;;;;;;11.05;7.63;;;;;;;9.93;77.47;100956.09;1044597;28;20630;-77
2022/04/22 00:19:38;;;;;;;10.98;7.28;;;;;;;9.97;77.06;100958.13;1044605;28;20299;-77
2022/04/22 00:20:11;;;;;;;8.45;7.63;;;;;;;9.98;76.79;100957.13;1044864;28;20287;-76
2022/04/22 00:20:43;;;;;;;10.07;7.10;;;;;;;9.88;77.24;100948.75;1040010;28;20353;-76
2022/04/22 00:21:14;;;;;;;13.48;8.02;;;;;;;9.96;76.94;100956.50;1040324;28;20797;-77
2022/04/22 00:21:47;;;;;;;8.50;6.65;;;;;;;9.94;77.12;100955.91;1032100;28;20300;-77
2022/04/22 00:22:19;;;;;;;9.55;7.97;;;;;;;9.93;77.45;100959.59;1033489;28;20372;-76
2022/04/22 00:22:50;;;;;;;7.97;7.18;;;;;;;9.93;77.72;100956.94;1040446;28;20303;-77
2022/04/22 00:23:22;;;;;;;8.80;7.90;;;;;;;9.96;77.44;100953.03;1041166;28;20300;-77
2022/04/22 00:23:54;;;;;;;12.13;7.55;;;;;;;9.90;77.63;100949.38;1044147;28;20295;-76
2022/04/22 00:24:25;;;;;;;11.18;7.13;;;;;;;10.01;77.21;100951.38;1044343;28;20287;-76
2022/04/22 00:24:57;;;;;;;8.73;7.43;;;;;;;10.03;76.75;100949.31;1044390;28;20299;-77
2022/04/22 00:25:29;;;;;;;16.27;8.77;;;;;;;9.91;77.23;100951.00;1044355;28;20291;-77
2022/04/22 00:26:00;;;;;;;11.93;8.75;;;;;;;9.92;77.51;100944.66;1044018;28;20307;-77
2022/04/22 00:26:32;;;;;;;11.55;8.55;;;;;;;9.99;76.88;100937.47;1044262;28;20298;-76
2022/04/22 00:27:03;;;;;;;7.30;6.60;;;;;;;10.02;76.85;100937.03;1040236;28;20315;-77
2022/04/22 00:27:37;;;;;;;8.60;7.28;;;;;;;10.08;76.99;100946.84;1035965;28;20418;-77
2022/04/22 00:28:08;;;;;;;10.13;7.40;;;;;;;10.04;77.34;100940.31;1036190;28;20299;-76
2022/04/22 00:28:40;;;;;;;8.20;7.30;;;;;;;10.00;77.00;100944.41;1037552;28;20297;-77
2022/04/22 00:29:11;;;;;;;9.45;7.57;;;;;;;10.00;77.65;100947.06;1044606;28;20303;-76
2022/04/22 00:29:43;;;;;;;16.00;7.30;;;;;;;9.99;77.74;100947.28;1044577;28;20310;-76
2022/04/22 00:30:14;;;;;;;11.07;8.68;;;;;;;10.01;77.30;100940.72;1044814;28;20296;-76
2022/04/22 00:30:47;;;;;;;8.32;7.28;;;;;;;10.04;76.90;100937.63;1044639;28;20295;-76
2022/04/22 00:31:19;;;;;;;13.90;7.82;;;;;;;10.02;77.68;100937.03;1044601;28;20303;-77
2022/04/22 00:31:50;;;;;;;10.27;7.55;;;;;;;9.99;77.65;100941.97;1044736;28;20326;-76
2022/04/22 00:32:22;;;;;;;11.32;8.73;;;;;;;9.92;77.58;100942.00;1044717;28;20794;-77
2022/04/22 00:32:53;;;;;;;9.43;8.05;;;;;;;9.93;77.40;100943.63;1044613;28;20672;-76
2022/04/22 00:33:25;;;;;;;11.35;7.97;;;;;;;9.98;77.58;100941.16;1044607;28;20306;-76
2022/04/22 00:33:56;;;;;;;10.73;8.40;;;;;;;10.07;76.79;100939.06;1044311;28;20295;-77
2022/04/22 00:34:28;;;;;;;11.88;7.90;;;;;;;9.98;77.43;100943.81;1044339;28;20299;-76
2022/04/22 00:35:02;;;;;;;10.18;7.70;;;;;;;9.99;77.57;100941.97;1040185;28;20312;-76
2022/04/22 00:35:33;;;;;;;10.65;8.65;;;;;;;9.96;77.75;100932.56;1041050;28;20302;-76
2022/04/22 00:36:05;;;;;;;11.43;8.32;;;;;;;9.97;77.34;100944.84;1040308;28;20816;-76
2022/04/22 00:36:36;;;;;;;10.45;8.43;;;;;;;9.96;77.61;100942.38;1040084;28;20370;-76
2022/04/22 00:37:08;;;;;;;9.48;8.20;;;;;;;9.98;77.59;100941.16;1040603;28;20304;-77
2022/04/22 00:37:42;;;;;;;9.77;7.65;;;;;;;9.87;77.67;100947.13;1044271;28;20291;-76
2022/04/22 00:38:13;;;;;;;10.45;8.48;;;;;;;9.90;77.76;100938.72;1044457;28;20295;-77
2022/04/22 00:38:45;;;;;;;12.57;8.50;;;;;;;9.93;77.58;100938.31;1044128;28;20307;-76
2022/04/22 00:39:16;;;;;;;17.23;9.10;;;;;;;10.05;77.05;100931.28;1044340;28;20729;-77
2022/04/22 00:39:48;;;;;;;8.75;7.18;;;;;;;10.05;76.98;100928.63;1044284;28;20342;-76
2022/04/22 00:40:19;;;;;;;10.60;8.18;;;;;;;10.03;77.40;100933.34;1044154;28;20342;-77
2022/04/22 00:40:55;;;;;;;11.13;7.78;;;;;;;9.98;77.06;100925.19;1044557;28;20295;-76
2022/04/22 00:41:26;;;;;;;9.50;7.95;;;;;;;9.96;77.05;100929.91;1040658;28;20295;-78
2022/04/22 00:42:06;;;;;;;13.02;8.60;;;;;;;9.98;77.19;100930.50;1043647;28;20295;-76
2022/04/22 00:42:38;;;;;;;13.90;7.80;;;;;;;9.97;77.46;100928.06;1044486;28;20291;-76
2022/04/22 00:43:28;;;;;;;12.75;8.27;;;;;;;9.99;77.65;100926.81;1044255;28;20306;-77
2022/04/22 00:44:00;;;;;;;10.52;7.63;;;;;;;9.96;77.60;100931.75;1044442;28;20284;-76
2022/04/22 00:44:31;;;;;;;16.83;9.35;;;;;;;9.87;78.15;100934.63;1044333;28;20310;-76
2022/04/22 00:45:04;;;;;;;11.07;8.07;;;;;;;9.87;77.71;100934.63;1044275;28;20345;-77
2022/04/22 00:45:35;;;;;;;12.00;8.48;;;;;;;9.90;77.50;100928.91;1044417;28;20291;-76
2022/04/22 00:46:07;;;;;;;8.80;8.00;;;;;;;9.97;77.13;100926.22;1042251;28;20288;-76
2022/04/22 00:46:39;;;;;;;12.05;7.32;;;;;;;9.98;77.53;100924.38;1044322;28;20797;-77
2022/04/22 00:47:10;;;;;;;22.02;9.95;;;;;;;9.95;77.30;100920.28;1040231;28;20295;-77
2022/04/22 00:47:42;;;;;;;10.93;8.43;;;;;;;9.93;77.60;100924.19;1040313;28;20285;-77
2022/04/22 00:48:14;;;;;;;9.52;8.20;;;;;;;9.91;77.70;100919.06;1039948;28;20295;-77
2022/04/22 00:48:46;;;;;;;18.30;9.63;;;;;;;9.87;78.04;100928.50;1040671;28;20307;-77
2022/04/22 00:49:17;;;;;;;12.02;9.30;;;;;;;9.91;78.13;100921.72;1044424;28;20291;-77
2022/04/22 00:49:49;;;;;;;11.70;8.50;;;;;;;9.85;77.73;100925.22;1041670;28;20306;-76
2022/04/22 00:50:21;;;;;;;8.45;7.53;;;;;;;9.84;78.47;100929.72;1040613;28;20308;-78
2022/04/22 00:50:52;;;;;;;11.75;8.65;;;;;;;9.77;77.90;100928.91;1044060;28;20283;-78
2022/04/22 00:51:24;;;;;;;9.55;8.55;;;;;;;9.71;78.46;100934.25;1040318;28;20298;-77
2022/04/22 00:51:55;;;;;;;10.23;9.18;;;;;;;9.68;78.82;100926.69;1040651;28;20299;-77
2022/04/22 00:52:27;;;;;;;11.57;8.10;;;;;;;9.70;78.70;100930.78;1044311;28;20295;-76
2022/04/22 00:52:59;;;;;;;12.40;8.85;;;;;;;9.67;78.30;100927.72;1040703;28;20809;-76
2022/04/22 00:53:33;;;;;;;13.43;8.43;;;;;;;9.70;78.60;100930.78;1044228;28;20299;-76
2022/04/22 00:54:05;;;;;;;8.85;8.02;;;;;;;9.68;78.76;100924.03;1044385;28;20314;-77
2022/04/22 00:54:37;;;;;;;11.77;8.55;;;;;;;9.64;79.24;100928.16;1040197;28;20311;-77
2022/04/22 00:55:09;;;;;;;13.57;8.63;;;;;;;9.70;78.73;100922.00;1036161;28;20391;-76
2022/04/22 00:55:43;;;;;;;12.05;9.10;;;;;;;9.69;79.12;100923.00;1032237;28;20305;-77
2022/04/22 00:56:14;;;;;;;14.25;8.40;;;;;;;9.67;78.74;100923.22;1033924;28;20285;-77
2022/04/22 00:56:46;;;;;;;9.35;8.35;;;;;;;9.73;78.93;100926.88;1036940;28;20315;-77
2022/04/22 00:57:18;;;;;;;13.95;8.60;;;;;;;9.75;78.82;100927.50;1041039;28;20288;-76
2022/04/22 00:57:50;;;;;;;11.68;9.63;;;;;;;9.62;79.12;100919.56;1040357;28;20293;-76
2022/04/22 00:58:24;;;;;;;11.43;8.38;;;;;;;9.66;78.81;100924.25;1028970;28;20298;-77
2022/04/22 00:58:57;;;;;;;12.18;8.10;;;;;;;9.62;79.22;100924.88;1031913;28;20297;-76
2022/04/22 00:59:33;;;;;;;11.75;8.23;;;;;;;9.69;79.21;100923.00;1032775;28;20293;-76
2022/04/22 01:00:05;;;;;;;10.57;9.02;;;;;;;9.67;79.17;100920.56;1039233;28;20297;-76
2022/04/22 01:00:37;;;;;;;10.27;7.40;;;;;;;9.72;79.20;100919.94;1044384;28;20303;-77
2022/04/22 01:01:11;;;;;;;11.05;8.68;;;;;;;9.71;79.19;100923.63;1035885;28;20340;-76
2022/04/22 01:01:43;;;;;;;11.27;8.95;;;;;;;9.70;79.58;100916.66;1035868;28;20372;-77
2022/04/22 01:02:14;;;;;;;11.30;9.05;;;;;;;9.71;79.59;100920.97;1036038;28;20324;-77
2022/04/22 01:02:47;;;;;;;10.93;8.20;;;;;;;9.67;79.61;100923.22;1036016;28;20284;-77
2022/04/22 01:03:19;;;;;;;13.63;8.77;;;;;;;9.65;79.70;100919.13;1033453;28;20822;-76
2022/04/22 01:10:02;;;;;;;10.05;8.05;;;;;;;9.57;79.72;100912.19;1040324;28;20327;-77
2022/04/22 01:10:33;;;;;;;10.90;7.88;;;;;;;9.52;80.23;100904.81;1044207;28;20292;-76
2022/04/22 01:11:05;;;;;;;12.95;9.55;;;;;;;9.52;80.70;100910.16;1044133;28;20302;-77
2022/04/22 01:11:37;;;;;;;11.65;7.50;;;;;;;9.52;80.56;100910.16;1044498;28;20519;-76
2022/04/22 01:12:09;;;;;;;8.40;7.60;;;;;;;9.48;80.38;100911.59;1044591;28;20291;-76
2022/04/22 01:12:40;;;;;;;12.25;7.88;;;;;;;9.48;80.51;100908.94;1044472;28;20291;-77
2022/04/22 01:13:13;;;;;;;11.60;8.23;;;;;;;9.43;81.02;100906.09;1044133;28;20394;-76
2022/04/22 01:13:45;;;;;;;10.57;8.45;;;;;;;9.41;80.94;100902.81;1044682;28;20695;-77
2022/04/22 01:14:17;;;;;;;8.70;7.38;;;;;;;9.39;81.58;100910.19;1044652;28;20287;-76
2022/04/22 01:14:48;;;;;;;14.73;8.75;;;;;;;9.46;80.46;100900.34;1043705;28;20302;-76
2022/04/22 01:15:20;;;;;;;8.23;7.10;;;;;;;9.54;81.15;100900.13;1043530;28;20308;-76
2022/04/22 01:15:52;;;;;;;10.65;7.32;;;;;;;9.56;80.42;100906.03;1044299;28;20292;-77
2022/04/22 01:16:24;;;;;;;13.82;7.25;;;;;;;9.52;80.50;100901.34;1040243;28;20785;-76
2022/04/22 01:16:56;;;;;;;8.10;7.07;;;;;;;9.44;81.41;100902.41;1039685;28;20634;-76
2022/04/22 01:17:27;;;;;;;8.38;7.32;;;;;;;9.50;80.56;100901.56;1039987;28;20308;-77
2022/04/22 01:17:59;;;;;;;9.85;7.30;;;;;;;9.45;81.49;100904.03;1040252;28;20292;-76
2022/04/22 01:18:31;;;;;;;8.40;6.97;;;;;;;9.41;81.37;100908.13;1044113;28;20296;-76
2022/04/22 01:19:02;;;;;;;8.38;6.88;;;;;;;9.38;81.69;100903.22;1044312;28;20342;-77
2022/04/22 01:19:34;;;;;;;12.57;7.28;;;;;;;9.37;81.42;100906.91;1044228;28;20306;-76
2022/04/22 01:20:06;;;;;;;7.50;6.72;;;;;;;9.29;82.18;100901.78;1044423;28;20287;-77
2022/04/22 01:20:38;;;;;;;9.50;7.03;;;;;;;9.27;82.48;100902.00;1044211;28;20295;-77
2022/04/22 01:21:09;;;;;;;12.60;7.88;;;;;;;9.25;82.55;100903.22;1043959;28;20296;-76
2022/04/22 01:21:41;;;;;;;9.93;7.15;;;;;;;9.33;82.12;100902.22;1043819;28;20658;-77
2022/04/22 01:22:13;;;;;;;7.97;7.20;;;;;;;9.32;82.27;100897.94;1044220;28;20807;-76
2022/04/22 01:22:44;;;;;;;9.30;8.15;;;;;;;9.42;81.98;100898.31;1042014;28;20650;-77
2022/04/22 01:23:16;;;;;;;9.85;8.75;;;;;;;9.30;82.65;100898.09;1044505;28;20303;-77
2022/04/22 01:23:48;;;;;;;13.80;8.65;;;;;;;9.26;82.73;100896.88;1044201;28;20310;-76
2022/04/22 01:24:19;;;;;;;7.85;7.05;;;;;;;9.34;82.86;100896.69;1041648;28;20295;-78
2022/04/22 01:24:56;;;;;;;8.68;7.72;;;;;;;9.27;82.81;100898.53;1040020;28;20292;-77
2022/04/22 01:25:27;;;;;;;9.00;7.60;;;;;;;9.20;83.19;100897.72;1041159;28;20299;-77
2022/04/22 01:26:00;;;;;;;9.20;7.30;;;;;;;9.21;82.41;100891.38;1044126;28;20291;-76
2022/04/22 01:26:32;;;;;;;11.95;7.50;;;;;;;9.22;83.26;100901.00;1040239;28;20361;-76
2022/04/22 01:27:05;;;;;;;8.63;7.68;;;;;;;9.16;83.06;100899.16;1043855;28;20314;-77
2022/04/22 01:27:37;;;;;;;7.93;7.07;;;;;;;9.19;82.51;100893.44;1039907;28;20303;-77
2022/04/22 01:28:10;;;;;;;10.50;8.40;;;;;;;9.15;82.95;100902.84;1040121;28;20724;-76
2022/04/22 01:28:42;;;;;;;9.13;7.15;;;;;;;9.11;82.81;100897.13;1036628;28;20383;-77
2022/04/22 01:29:14;;;;;;;9.70;7.57;;;;;;;9.11;82.87;100891.00;1030309;28;20297;-77
2022/04/22 01:29:45;;;;;;;9.60;7.95;;;;;;;9.02;83.09;100894.84;1031942;28;20361;-76
2022/04/22 01:30:21;;;;;;;11.25;8.23;;;;;;;9.01;82.95;100891.38;1036359;28;20312;-76
2022/04/22 01:30:59;;;;;;;9.63;7.28;;;;;;;8.93;83.69;100897.72;1041153;28;20283;-77
2022/04/22 01:31:30;;;;;;;9.00;6.68;;;;;;;8.97;83.25;100890.97;1044125;28;20307;-76
2022/04/22 01:32:02;;;;;;;12.10;8.07;;;;;;;8.92;83.89;100893.44;1044217;28;20306;-76
2022/04/22 01:32:34;;;;;;;9.38;7.35;;;;;;;8.92;84.29;100893.44;1044186;28;20629;-76
2022/04/22 01:33:05;;;;;;;11.18;8.07;;;;;;;8.96;84.38;100899.97;1044382;28;20772;-76
2022/04/22 01:33:37;;;;;;;9.07;8.10;;;;;;;8.85;83.87;100895.28;1044048;28;20306;-77
2022/04/22 01:34:08;;;;;;;10.15;8.18;;;;;;;8.94;84.49;100893.22;1043988;28;20334;-77
2022/04/22 01:34:42;;;;;;;8.70;7.47;;;;;;;9.02;84.94;100897.50;1039959;28;20686;-77
2022/04/22 01:35:13;;;;;;;8.57;7.32;;;;;;;8.95;84.51;100898.34;1039860;28;20439;-77
2022/04/22 01:35:45;;;;;;;8.93;7.43;;;;;;;8.81;84.47;100893.22;1038610;28;20316;-76
2022/04/22 01:36:16;;;;;;;9.52;8.23;;;;;;;8.89;85.73;100888.53;1043976;28;20303;-76
2022/04/22 01:36:48;;;;;;;8.63;7.35;;;;;;;8.90;85.22;100895.47;1040614;28;20661;-77
2022/04/22 01:37:19;;;;;;;7.85;6.90;;;;;;;8.89;85.20;100887.72;1044111;28;20637;-76
2022/04/22 01:37:51;;;;;;;8.32;7.53;;;;;;;8.83;85.95;100891.19;1039885;28;20797;-77
2022/04/22 01:38:23;;;;;;;11.82;8.57;;;;;;;8.79;85.83;100897.94;1040348;28;20292;-76
2022/04/22 01:38:55;;;;;;;8.43;7.63;;;;;;;8.74;86.64;100889.72;1035873;28;20880;-77
2022/04/22 01:39:29;;;;;;;10.90;7.60;;;;;;;8.85;86.03;100897.13;1036431;28;20292;-76
2022/04/22 01:40:01;;;;;;;10.07;8.55;;;;;;;8.80;86.62;100889.75;1037577;28;20395;-77
2022/04/22 01:40:32;;;;;;;11.10;8.13;;;;;;;8.72;86.34;100892.59;1040412;28;20300;-76
2022/04/22 01:41:04;;;;;;;8.07;7.28;;;;;;;8.67;86.51;100897.69;1044055;28;20292;-76
2022/04/22 01:41:36;;;;;;;9.10;7.45;;;;;;;8.72;86.76;100895.25;1044031;28;20299;-76
2022/04/22 01:42:08;;;;;;;9.20;8.25;;;;;;;8.70;86.92;100891.97;1043593;28;20310;-77
2022/04/22 01:42:40;;;;;;;9.73;7.82;;;;;;;8.75;86.83;100892.19;1043720;28;20325;-77
2022/04/22 01:43:12;;;;;;;13.10;8.48;;;;;;;8.71;87.01;100888.31;1043929;28;20303;-76
2022/04/22 01:43:43;;;;;;;10.90;9.07;;;;;;;8.71;87.26;100896.25;1038286;28;20319;-77
2022/04/22 01:44:16;;;;;;;8.57;7.72;;;;;;;8.67;87.83;100892.38;1039384;28;20304;-77
2022/04/22 01:44:49;;;;;;;8.80;7.85;;;;;;;8.73;88.10;100888.09;1043900;28;20303;-76
2022/04/22 01:45:21;;;;;;;9.85;8.18;;;;;;;8.68;88.00;100891.38;1041897;28;20370;-77
2022/04/22 01:45:53;;;;;;;9.18;7.63;;;;;;;8.74;88.56;100895.03;1044219;28;20299;-77
2022/04/22 01:46:24;;;;;;;11.63;7.55;;;;;;;8.70;87.99;100889.31;1043593;28;20377;-77
2022/04/22 01:46:56;;;;;;;10.32;7.88;;;;;;;8.69;88.27;100890.34;1044071;28;20292;-77
2022/04/22 01:47:29;;;;;;;9.75;8.75;;;;;;;8.59;88.82;100887.28;1043869;28;20299;-77
2022/04/22 01:48:01;;;;;;;9.20;8.30;;;;;;;8.60;88.76;100888.91;1043993;28;20298;-77
2022/04/22 01:48:32;;;;;;;10.30;8.05;;;;;;;8.54;88.50;100889.72;1044002;28;20303;-77
2022/04/22 01:49:04;;;;;;;13.23;8.45;;;;;;;8.50;88.96;100891.16;1044059;28;20291;-77
2022/04/22 01:49:35;;;;;;;12.07;8.77;;;;;;;8.56;89.90;100898.31;1040159;28;20315;-76
2022/04/22 01:50:07;;;;;;;16.00;8.68;;;;;;;8.62;89.01;100887.69;1044113;28;20292;-76
2022/04/22 01:50:39;;;;;;;9.80;8.90;;;;;;;8.62;89.61;100892.19;1041503;28;20370;-76
2022/04/22 01:51:11;;;;;;;10.25;7.40;;;;;;;8.57;89.34;100890.13;1043886;28;20295;-76
2022/04/22 01:51:42;;;;;;;10.45;8.75;;;;;;;8.57;89.97;100894.63;1044113;28;20287;-77
2022/04/22 01:52:14;;;;;;;11.93;8.55;;;;;;;8.52;89.96;100891.75;1044373;28;20660;-76
2022/04/22 01:52:45;;;;;;;10.07;8.32;;;;;;;8.54;89.77;100895.03;1044245;28;20295;-76
2022/04/22 01:53:17;;;;;;;9.77;8.77;;;;;;;8.54;90.52;100895.84;1043882;28;20334;-77
2022/04/22 01:53:49;;;;;;;10.00;8.52;;;;;;;8.60;90.39;100894.22;1039755;28;20335;-76
2022/04/22 01:54:21;;;;;;;12.07;9.10;;;;;;;8.63;90.33;100893.81;1035753;28;20941;-76
2022/04/22 01:54:55;;;;;;;10.90;8.43;;;;;;;8.54;90.38;100895.03;1035742;28;20288;-77
2022/04/22 01:55:27;;;;;;;12.30;8.57;;;;;;;8.51;90.65;100895.44;1033311;28;20301;-77
2022/04/22 01:55:58;;;;;;;10.88;8.82;;;;;;;8.52;90.99;100891.75;1038081;28;20307;-76
2022/04/22 01:56:30;;;;;;;14.27;9.48;;;;;;;8.45;91.25;100896.22;1043893;28;20302;-78
2022/04/22 01:57:03;;;;;;;9.80;8.80;;;;;;;8.51;91.17;100892.78;1040815;28;20296;-78
2022/04/22 01:57:34;;;;;;;12.18;8.82;;;;;;;8.49;90.83;100886.81;1037713;28;20806;-76
2022/04/22 01:58:06;;;;;;;16.30;9.23;;;;;;;8.47;90.69;100888.88;1039836;28;20355;-78
2022/04/22 01:58:37;;;;;;;11.02;9.30;;;;;;;8.39;90.82;100894.38;1040499;28;20299;-77
2022/04/22 01:59:09;;;;;;;12.63;8.38;;;;;;;8.48;91.00;100898.47;1043957;28;20306;-77
2022/04/22 01:59:44;;;;;;;12.07;9.02;;;;;;;8.42;91.13;100888.66;1044192;28;20291;-76
2022/04/22 02:00:16;;;;;;;13.00;8.90;;;;;;;8.45;91.83;100891.72;1044287;28;20291;-76
2022/04/22 02:00:47;;;;;;;12.57;10.35;;;;;;;8.51;91.60;100884.81;1044067;28;20307;-77
2022/04/22 02:01:19;;;;;;;10.82;9.73;;;;;;;8.45;91.38;100890.91;1044343;28;20298;-76
2022/04/22 02:01:51;;;;;;;14.80;9.77;;;;;;;8.40;92.14;100890.69;1043744;28;20425;-76
2022/04/22 02:02:22;;;;;;;15.70;9.15;;;;;;;8.27;92.39;100889.63;1043771;28;20820;-77
2022/04/22 02:02:54;;;;;;;10.27;9.07;;;;;;;8.36;92.14;100888.44;1043587;28;20665;-77
2022/04/22 02:03:26;;;;;;;12.63;10.73;;;;;;;8.42;92.13;100881.50;1043710;28;20306;-78
2022/04/22 02:03:57;;;;;;;12.23;10.10;;;;;;;8.48;91.70;100885.19;1043698;28;20318;-77
2022/04/22 02:04:29;;;;;;;11.05;9.43;;;;;;;8.55;92.38;100888.69;1039933;28;20307;-77
2022/04/22 02:05:00;;;;;;;14.07;9.55;;;;;;;8.55;91.67;100891.34;1039752;28;20291;-77
2022/04/22 02:05:33;;;;;;;11.00;9.82;;;;;;;8.53;92.34;100888.91;1036046;28;20308;-77
2022/04/22 02:06:05;;;;;;;11.85;10.18;;;;;;;8.50;91.62;100878.69;1040552;28;20299;-76
2022/04/22 02:06:37;;;;;;;11.68;9.95;;;;;;;8.35;92.50;100891.31;1037595;28;20304;-77
2022/04/22 02:07:08;;;;;;;14.80;11.27;;;;;;;8.33;92.30;100885.34;1040471;28;20307;-77
2022/04/22 02:07:41;;;;;;;13.02;9.57;;;;;;;8.34;92.22;100893.13;1039759;28;20319;-77
2022/04/22 02:08:13;;;;;;;13.55;11.30;;;;;;;8.39;92.82;100883.75;1039631;28;20689;-76
2022/04/22 02:08:44;;;;;;;11.85;9.75;;;;;;;8.41;92.70;100889.69;1040387;28;20311;-77
2022/04/22 02:09:16;;;;;;;17.15;9.95;;;;;;;8.30;92.24;100888.41;1043683;28;20697;-77
2022/04/22 02:09:47;;;;;;;14.15;10.07;;;;;;;8.32;93.24;100879.22;1044046;28;20291;-76
2022/04/22 02:10:19;;;;;;;17.17;10.60;;;;;;;8.32;92.55;100881.88;1044263;28;20303;-77
2022/04/22 02:10:51;;;;;;;12.65;10.05;;;;;;;8.31;92.49;100884.72;1044110;28;20299;-77
2022/04/22 02:11:22;;;;;;;14.90;10.85;;;;;;;8.36;92.88;100882.31;1044336;28;20295;-78
2022/04/22 02:11:55;;;;;;;14.50;9.98;;;;;;;8.30;92.82;100878.59;1043826;28;20299;-76
2022/04/22 02:12:26;;;;;;;12.85;10.25;;;;;;;8.27;93.46;100876.34;1043765;28;20307;-76
2022/04/22 02:12:58;;;;;;;13.77;10.95;;;;;;;8.31;92.83;100880.25;1043911;28;20295;-77
2022/04/22 02:13:34;;;;;;;11.52;10.43;;;;;;;8.38;92.72;100876.81;1041495;28;20295;-77
2022/04/22 02:14:05;;;;;;;15.95;10.25;;;;;;;8.34;93.50;100879.88;1044260;28;20642;-77
2022/04/22 02:14:37;;;;;;;12.45;9.27;;;;;;;8.31;93.08;100884.72;1044141;28;20306;-76
2022/04/22 02:15:09;;;;;;;13.50;10.43;;;;;;;8.25;93.45;100878.41;1044221;28;20319;-76
2022/04/22 02:15:40;;;;;;;12.05;9.73;;;;;;;8.21;93.11;100879.78;1041884;28;20299;-76
2022/04/22 02:16:12;;;;;;;10.90;9.48;;;;;;;8.20;93.14;100878.16;1044019;28;20353;-77
2022/04/22 02:16:44;;;;;;;12.20;10.45;;;;;;;8.20;93.72;100879.97;1044198;28;20307;-76
2022/04/22 02:17:16;;;;;;;17.60;10.75;;;;;;;8.24;93.88;100883.91;1044289;28;20302;-76
2022/04/22 02:17:47;;;;;;;13.40;10.57;;;;;;;8.24;93.84;100873.28;1044051;28;20307;-77
2022/04/22 02:18:19;;;;;;;12.95;10.70;;;;;;;8.24;93.70;100878.59;1044168;28;20303;-75
2022/04/22 02:18:51;;;;;;;13.45;10.90;;;;;;;8.21;93.87;100873.66;1043987;28;20678;-76
2022/04/22 02:19:23;;;;;;;13.75;11.57;;;;;;;8.22;93.80;100876.16;1043610;28;20294;-76
2022/04/22 02:19:54;;;;;;;12.40;10.80;;;;;;;8.19;93.66;100876.50;1043529;28;20287;-76
2022/04/22 02:20:26;;;;;;;11.63;10.50;;;;;;;8.24;93.63;100873.28;1044038;28;20769;-76
2022/04/22 02:20:58;;;;;;;15.07;11.25;;;;;;;8.26;93.75;100872.06;1044081;28;20313;-77
2022/04/22 02:21:29;;;;;;;16.58;11.68;;;;;;;8.24;93.78;100873.28;1043978;28;20314;-77
2022/04/22 02:22:01;;;;;;;12.20;10.82;;;;;;;8.26;93.75;100877.38;1043830;28;20299;-76
2022/04/22 02:22:34;;;;;;;13.07;11.23;;;;;;;8.23;94.32;100872.47;1039809;28;20354;-76
2022/04/22 02:23:06;;;;;;;15.02;11.18;;;;;;;8.19;94.25;100881.00;1039587;28;20307;-75
2022/04/22 02:23:40;;;;;;;14.63;10.90;;;;;;;8.18;94.47;100885.50;1040361;28;20322;-76
2022/04/22 02:24:12;;;;;;;15.57;11.82;;;;;;;8.18;94.63;100874.88;1043836;28;20307;-77
2022/04/22 02:24:44;;;;;;;19.02;11.27;;;;;;;8.22;94.05;100875.31;1043694;28;20300;-77
2022/04/22 02:25:15;;;;;;;18.52;10.90;;;;;;;8.15;93.84;100875.28;1039080;28;20353;-76
2022/04/22 02:25:47;;;;;;;14.43;11.77;;;;;;;8.18;94.34;100874.06;1039629;28;20292;-76
2022/04/22 02:26:21;;;;;;;12.88;11.45;;;;;;;8.13;94.29;100866.72;1040244;28;20292;-77
2022/04/22 02:28:33;;;;;;;12.68;11.23;;;;;;;8.11;94.72;100871.41;1041962;28;20304;-76
2022/04/22 02:29:04;;;;;;;13.80;10.10;;;;;;;8.07;94.74;100872.81;1044141;28;20770;-76
2022/04/22 02:29:38;;;;;;;14.00;11.23;;;;;;;8.15;95.02;100863.84;1044108;28;20310;-76
2022/04/22 02:30:11;;;;;;;14.05;10.95;;;;;;;8.07;94.60;100875.47;1044073;28;20641;-76
2022/04/22 02:30:43;;;;;;;13.50;10.30;;;;;;;8.11;94.89;100883.84;1044067;28;20328;-77
2022/04/22 02:31:14;;;;;;;13.77;10.20;;;;;;;8.15;94.31;100871.81;1043923;28;20295;-77
2022/04/22 02:31:46;;;;;;;12.60;10.95;;;;;;;8.18;94.83;100864.25;1043981;28;20377;-76
2022/04/22 02:32:18;;;;;;;14.85;11.43;;;;;;;8.24;95.05;100863.50;1043759;28;20304;-76
2022/04/22 02:32:50;;;;;;;14.55;10.30;;;;;;;8.18;94.87;100866.91;1043828;28;20310;-76
2022/04/22 02:33:21;;;;;;;16.20;10.80;;;;;;;8.19;94.34;100860.59;1043546;28;20295;-77
2022/04/22 02:33:53;;;;;;;15.27;10.70;;;;;;;8.22;94.82;100865.53;1039779;28;20389;-77
2022/04/22 02:34:24;;;;;;;12.88;11.52;;;;;;;8.19;94.54;100860.59;1040028;28;20299;-77
2022/04/22 02:34:56;;;;;;;12.75;11.45;;;;;;;8.18;95.09;100864.25;1043757;28;20766;-77
2022/04/22 02:35:28;;;;;;;13.40;11.43;;;;;;;8.17;94.84;100862.63;1044006;28;20429;-76
2022/04/22 02:36:01;;;;;;;13.07;10.70;;;;;;;8.17;94.19;100864.47;1043893;28;20303;-77
2022/04/22 02:36:32;;;;;;;13.05;11.23;;;;;;;8.12;94.45;100865.06;1039519;28;20300;-76
2022/04/22 02:37:04;;;;;;;15.93;11.43;;;;;;;8.08;94.48;100858.53;1039838;28;20311;-76
2022/04/22 02:37:36;;;;;;;19.55;10.77;;;;;;;8.09;94.81;100856.69;1039586;28;20303;-77